Terminal Aerodrome Forecast
Issued by NWS

Home | Current Version | Previous Version | Text Only | Print | Product List | Glossary Off
Versions: 1 2 3 4 5 6 7 8 9 10 11 12 13 14 15

000
FTUS43 KBIS 131400 AAA
TAFDIK
TAF AMD
KDIK 131444Z 1315/1412 29015G24KT P6SM SCT060
     FM131800 30014G23KT P6SM BKN060
     FM140100 31008KT P6SM BKN050
     FM140500 28008KT P6SM SCT050=

USA.gov is the U.S. government's official web portal to all federal, state and local government web resources and services.